Time;durP1;ratioP1;P1;durP2;ratioP2;P2;SDS_P1;SDS_P2;PMS_P1;PMS_P2;Temp;Humidity;BMP_temperature;BMP_pressure;BME280_temperature;BME280_humidity;BME280_pressure;Samples;Min_cycle;Max_cycle;Signal;HPM_P1;HPM_P2
2021/12/31 00:01:53;;;;;;;25.00;15.30;;;;;;;6.42;94.11;98343.52;105269;1333;137672;-80
2021/12/31 00:04:19;;;;;;;22.30;14.00;;;;;;;6.43;94.25;98347.96;105282;1333;22868;-80
2021/12/31 00:06:45;;;;;;;19.40;10.70;;;;;;;6.44;94.10;98349.08;105157;1326;22455;-80
2021/12/31 00:09:11;;;;;;;13.60;9.20;;;;;;;6.49;94.51;98350.04;105113;1331;138393;-81
2021/12/31 00:11:38;;;;;;;12.90;8.00;;;;;;;6.53;94.66;98352.01;105252;1327;22595;-81
2021/12/31 00:14:04;;;;;;;10.80;7.70;;;;;;;6.56;94.88;98352.95;104978;1333;138155;-81
2021/12/31 00:16:31;;;;;;;12.00;7.20;;;;;;;6.60;95.01;98353.27;105015;1334;22263;-81
2021/12/31 00:18:57;;;;;;;11.80;7.20;;;;;;;6.64;95.03;98355.08;105232;1333;22563;-81
2021/12/31 00:21:24;;;;;;;12.80;7.80;;;;;;;6.70;94.96;98359.30;105224;1333;138035;-81
2021/12/31 00:24:05;;;;;;;11.00;7.10;;;;;;;6.74;95.17;98364.09;105287;1327;22297;-81
2021/12/31 00:26:31;;;;;;;11.10;8.00;;;;;;;6.78;94.87;98366.05;104962;1327;137554;-80
2021/12/31 00:28:58;;;;;;;12.60;7.90;;;;;;;6.78;94.79;98363.96;105167;1327;22395;-81
2021/12/31 00:31:24;;;;;;;12.20;7.90;;;;;;;6.79;94.95;98365.12;104914;1330;138809;-81
2021/12/31 00:33:51;;;;;;;10.10;7.30;;;;;;;6.81;94.73;98372.55;105234;1333;22514;-81
2021/12/31 00:36:17;;;;;;;10.00;8.30;;;;;;;6.83;94.75;98375.02;105212;1327;22529;-81
2021/12/31 00:38:47;;;;;;;10.80;8.10;;;;;;;6.85;94.83;98378.10;105093;1330;138024;-80
2021/12/31 00:41:13;;;;;;;11.60;8.50;;;;;;;6.86;94.63;98376.55;104937;1327;23689;-81
2021/12/31 00:43:39;;;;;;;12.00;8.50;;;;;;;6.87;94.76;98377.71;105114;1333;138759;-81
2021/12/31 00:46:06;;;;;;;11.00;8.10;;;;;;;6.88;94.62;98381.41;105331;1333;22389;-79
2021/12/31 00:48:35;;;;;;;10.50;8.50;;;;;;;6.89;94.92;98383.36;105248;1333;22559;-79
2021/12/31 00:51:02;;;;;;;10.00;7.60;;;;;;;6.91;94.71;98377.14;105085;1333;138407;-81
2021/12/31 00:53:29;;;;;;;10.80;7.10;;;;;;;6.92;94.63;98377.91;105113;1334;22508;-81
2021/12/31 00:55:55;;;;;;;11.90;7.80;;;;;;;6.93;94.92;98378.36;105119;1333;137865;-80
2021/12/31 00:58:22;;;;;;;10.90;8.30;;;;;;;6.95;95.14;98380.06;105161;1331;22416;-81
2021/12/31 01:00:49;;;;;;;10.70;7.90;;;;;;;6.96;95.06;98382.42;105275;1328;23007;-81
2021/12/31 01:03:19;;;;;;;11.50;7.60;;;;;;;6.98;95.02;98385.73;105145;1333;138257;-80
2021/12/31 01:05:45;;;;;;;9.30;7.10;;;;;;;6.99;94.94;98385.08;105190;1333;22920;-80
2021/12/31 01:08:11;;;;;;;11.70;7.50;;;;;;;6.99;95.05;98381.77;105237;1327;137618;-81
2021/12/31 01:10:37;;;;;;;10.70;7.70;;;;;;;6.99;94.96;98388.55;105223;1332;22615;-80
2021/12/31 01:13:09;;;;;;;11.40;8.80;;;;;;;7.00;95.11;98395.99;105136;1333;138556;-80
2021/12/31 01:15:45;;;;;;;10.70;8.90;;;;;;;7.01;95.01;98393.69;105211;1331;22355;-80
2021/12/31 01:20:39;;;;;;;10.20;7.10;;;;;;;7.06;95.31;98400.81;105097;1328;138777;-81
2021/12/31 01:23:08;;;;;;;9.70;6.70;;;;;;;7.08;95.32;98399.45;105000;1332;23039;-80
2021/12/31 01:25:34;;;;;;;9.10;6.90;;;;;;;7.09;95.46;98399.77;105218;1333;138177;-80
2021/12/31 01:28:15;;;;;;;9.20;7.00;;;;;;;7.14;95.58;98397.32;105709;1327;22532;-80
2021/12/31 01:30:42;;;;;;;6.90;5.80;;;;;;;7.17;95.56;98402.58;105821;1327;22434;-81
2021/12/31 01:33:08;;;;;;;11.30;7.10;;;;;;;7.20;95.54;98400.46;105652;1321;138091;-81
2021/12/31 01:35:34;;;;;;;9.70;7.10;;;;;;;7.23;95.65;98400.64;105662;1328;22379;-81
2021/12/31 01:38:00;;;;;;;11.50;7.20;;;;;;;7.24;95.48;98404.20;105654;1328;138176;-81
2021/12/31 01:40:27;;;;;;;14.50;8.50;;;;;;;7.27;95.20;98402.31;105544;1327;22255;-81
2021/12/31 01:42:53;;;;;;;10.00;6.80;;;;;;;7.29;95.45;98403.06;105960;1327;22489;-81
2021/12/31 01:45:21;;;;;;;9.40;5.80;;;;;;;7.32;95.57;98407.46;105817;1326;137330;-81
2021/12/31 01:50:21;;;;;;;9.40;6.90;;;;;;;7.35;95.39;98411.02;105723;1323;138348;-81
2021/12/31 01:52:47;;;;;;;8.70;6.60;;;;;;;7.35;94.99;98409.12;105779;1329;22478;-80
2021/12/31 01:55:14;;;;;;;8.20;6.00;;;;;;;7.36;95.00;98411.36;105616;1320;138029;-80
2021/12/31 01:57:42;;;;;;;9.60;7.20;;;;;;;7.38;95.49;98411.48;105736;1325;22541;-80
2021/12/31 02:00:10;;;;;;;8.00;6.60;;;;;;;7.38;95.03;98409.15;105666;1327;22295;-80
2021/12/31 02:02:44;;;;;;;9.50;6.60;;;;;;;7.37;95.04;98412.42;105795;1321;139446;-80
2021/12/31 02:05:11;;;;;;;9.90;7.10;;;;;;;7.37;94.87;98412.77;105639;1327;22386;-80
2021/12/31 02:07:38;;;;;;;9.00;6.50;;;;;;;7.36;94.84;98408.08;105901;1325;138318;-80
2021/12/31 02:10:06;;;;;;;7.60;6.60;;;;;;;7.37;94.93;98409.19;105945;1326;22501;-80
2021/12/31 02:12:52;;;;;;;9.60;7.40;;;;;;;7.38;94.75;98411.35;105744;1329;31720;-80
2021/12/31 02:15:19;;;;;;;11.90;8.30;;;;;;;7.38;94.77;98409.48;105660;1327;137494;-81
2021/12/31 02:17:48;;;;;;;9.40;7.80;;;;;;;7.38;94.77;98406.44;105759;1321;23259;-80
2021/12/31 02:20:19;;;;;;;10.40;7.70;;;;;;;7.38;95.03;98405.31;105673;1321;138424;-80
2021/12/31 02:23:05;;;;;;;9.80;7.80;;;;;;;7.38;94.74;98404.52;105979;1321;22504;-81
2021/12/31 02:25:33;;;;;;;10.80;8.60;;;;;;;7.40;94.99;98405.91;105655;1320;138028;-81
2021/12/31 02:27:59;;;;;;;10.20;8.20;;;;;;;7.40;95.09;98402.41;105810;1327;23418;-80
2021/12/31 02:30:25;;;;;;;11.70;8.20;;;;;;;7.41;95.01;98406.48;105935;1326;22263;-80
2021/12/31 02:32:52;;;;;;;12.90;8.80;;;;;;;7.40;95.07;98406.91;105645;1328;138648;-80
2021/12/31 02:35:18;;;;;;;12.40;8.60;;;;;;;7.40;95.15;98399.63;105703;1329;22386;-81
2021/12/31 02:37:44;;;;;;;10.30;7.70;;;;;;;7.44;95.10;98408.66;105591;1327;138332;-80
2021/12/31 02:40:13;;;;;;;13.70;8.50;;;;;;;7.44;95.01;98407.90;105556;1324;22295;-80
2021/12/31 02:42:40;;;;;;;10.50;8.00;;;;;;;7.45;95.29;98413.20;105900;1324;22434;-80
2021/12/31 02:45:11;;;;;;;12.10;9.60;;;;;;;7.46;95.16;98415.17;105821;1325;139451;-80
2021/12/31 02:47:43;;;;;;;11.10;8.90;;;;;;;7.46;94.88;98413.67;105989;1327;22210;-80
2021/12/31 02:50:12;;;;;;;10.10;8.30;;;;;;;7.47;94.88;98413.98;105792;1327;138649;-80
2021/12/31 02:52:39;;;;;;;;;;;;;;;7.47;94.89;98412.34;105792;1323;23422;-80
2021/12/31 02:55:06;;;;;;;12.80;9.00;;;;;;;7.47;95.38;98411.27;105711;1326;124117;-80
2021/12/31 02:57:32;;;;;;;11.90;9.60;;;;;;;7.48;95.11;98412.73;105770;1326;23327;-81
2021/12/31 02:59:59;;;;;;;11.80;9.30;;;;;;;7.49;95.23;98409.53;105706;1325;23174;-81
2021/12/31 03:02:26;;;;;;;11.40;8.60;;;;;;;7.50;94.88;98414.13;105703;1325;139269;-80
2021/12/31 03:04:53;;;;;;;11.10;8.10;;;;;;;7.50;94.90;98410.92;105705;1327;22237;-80
2021/12/31 03:07:22;;;;;;;11.60;8.70;;;;;;;7.51;95.18;98411.92;105804;1325;138525;-80
2021/12/31 03:09:50;;;;;;;12.70;9.30;;;;;;;7.51;94.94;98408.55;105956;1327;23292;-80
2021/12/31 03:12:17;;;;;;;12.00;8.50;;;;;;;7.50;95.25;98410.60;105650;1323;22459;-80
2021/12/31 03:14:47;;;;;;;11.80;9.10;;;;;;;7.49;94.72;98412.14;105678;1321;138602;-80
2021/12/31 03:17:16;;;;;;;11.30;9.00;;;;;;;7.50;95.13;98409.55;105728;1328;23165;-81
2021/12/31 03:19:43;;;;;;;11.70;9.60;;;;;;;7.52;95.09;98412.61;105540;1330;138458;-80
2021/12/31 03:22:10;;;;;;;14.10;10.30;;;;;;;7.52;94.97;98416.81;105663;1328;23822;-80
2021/12/31 03:24:36;;;;;;;13.80;10.30;;;;;;;7.52;95.15;98418.48;105518;1325;22382;-80
2021/12/31 03:27:17;;;;;;;12.60;9.80;;;;;;;7.51;95.01;98418.20;105626;1329;138360;-80
2021/12/31 03:29:44;;;;;;;14.40;11.30;;;;;;;7.52;95.06;98419.73;105702;1329;23279;-80
2021/12/31 03:32:11;;;;;;;14.80;10.70;;;;;;;7.53;94.94;98421.56;105629;1328;138735;-80
2021/12/31 03:34:37;;;;;;;13.30;10.20;;;;;;;7.54;94.82;98422.51;105724;1320;22514;-80
2021/12/31 03:37:04;;;;;;;15.40;11.10;;;;;;;7.54;94.64;98423.43;105754;1327;138431;-80
2021/12/31 03:39:31;;;;;;;14.60;10.40;;;;;;;7.53;94.89;98423.02;105647;1320;22453;-80
2021/12/31 03:41:59;;;;;;;15.30;10.50;;;;;;;7.53;94.92;98418.69;105809;1321;22531;-81
2021/12/31 03:44:25;;;;;;;18.90;12.30;;;;;;;7.54;94.89;98420.83;105664;1327;138402;-81
2021/12/31 03:46:51;;;;;;;12.90;9.90;;;;;;;7.53;94.76;98417.69;105755;1327;22558;-81
2021/12/31 03:49:19;;;;;;;12.30;9.20;;;;;;;7.53;94.75;98422.94;105692;1325;138222;-81
2021/12/31 03:51:45;;;;;;;14.20;10.70;;;;;;;7.51;94.74;98418.95;105771;1325;22353;-81
2021/12/31 03:54:12;;;;;;;11.20;9.30;;;;;;;7.50;94.88;98420.02;105819;1325;22548;-80
2021/12/31 03:56:38;;;;;;;11.70;8.60;;;;;;;7.51;95.08;98423.84;105808;1327;139008;-80
2021/12/31 03:59:04;;;;;;;10.40;7.80;;;;;;;7.52;95.03;98425.86;105734;1321;22375;-80
2021/12/31 04:01:30;;;;;;;12.80;9.70;;;;;;;7.52;95.15;98420.40;105652;1325;138780;-80
2021/12/31 04:03:57;;;;;;;12.70;9.60;;;;;;;7.52;95.04;98423.33;105700;1325;22506;-81
2021/12/31 04:06:23;;;;;;;12.00;9.60;;;;;;;7.51;94.96;98422.42;105733;1324;22505;-80
2021/12/31 04:08:50;;;;;;;11.60;9.50;;;;;;;7.51;95.06;98422.83;105674;1325;138360;-81
2021/12/31 04:11:20;;;;;;;12.00;9.40;;;;;;;7.53;95.14;98424.86;105780;1329;22341;-80
2021/12/31 04:13:46;;;;;;;;;;;;;;;7.52;94.93;98426.37;105609;1321;138407;-80
2021/12/31 04:16:12;;;;;;;12.90;9.60;;;;;;;7.53;95.09;98430.78;105712;1321;22484;-80
2021/12/31 04:18:39;;;;;;;12.50;9.90;;;;;;;7.52;95.31;98429.73;105722;1321;22215;-81
2021/12/31 04:21:05;;;;;;;12.80;9.70;;;;;;;7.52;95.16;98428.66;105784;1321;138555;-80
2021/12/31 04:23:35;;;;;;;12.70;9.90;;;;;;;7.53;95.36;98435.66;105712;1326;22378;-80
2021/12/31 04:26:16;;;;;;;12.50;10.10;;;;;;;7.53;95.06;98436.74;105611;1321;139135;-81
2021/12/31 04:28:43;;;;;;;12.80;9.60;;;;;;;7.54;95.24;98438.23;105680;1328;23237;-81
2021/12/31 04:31:10;;;;;;;14.20;10.00;;;;;;;7.55;95.09;98437.13;105617;1328;138307;-81
2021/12/31 04:33:37;;;;;;;11.10;9.30;;;;;;;7.55;95.21;98441.89;105748;1324;23222;-80
2021/12/31 04:36:04;;;;;;;11.30;8.40;;;;;;;7.55;95.43;98439.84;105876;1327;22544;-80
2021/12/31 04:38:30;;;;;;;12.20;9.80;;;;;;;7.55;95.24;98436.70;105601;1326;138561;-80
2021/12/31 04:40:57;;;;;;;11.60;8.80;;;;;;;7.55;95.25;98435.92;105906;1321;22463;-80
2021/12/31 04:43:30;;;;;;;11.90;9.80;;;;;;;7.55;95.11;98430.58;105752;1327;138622;-80
2021/12/31 04:45:56;;;;;;;;;;;;;;;7.56;95.37;98426.19;105712;1329;23339;-81
2021/12/31 04:48:22;;;;;;;11.30;9.20;;;;;;;7.56;95.41;98423.77;105713;1329;22860;-80
2021/12/31 04:50:49;;;;;;;11.50;8.60;;;;;;;7.55;95.36;98420.82;105472;1324;137523;-80
2021/12/31 04:53:16;;;;;;;12.00;9.70;;;;;;;7.54;95.37;98420.55;105693;1325;22551;-80
2021/12/31 04:55:43;;;;;;;11.20;8.80;;;;;;;7.51;95.40;98418.75;105728;1321;138701;-80
2021/12/31 04:58:09;;;;;;;12.10;8.70;;;;;;;7.52;95.39;98420.83;105892;1327;22919;-80
2021/12/31 05:00:35;;;;;;;12.60;10.00;;;;;;;7.52;95.56;98425.48;105789;1326;22536;-81
2021/12/31 05:03:09;;;;;;;11.10;9.90;;;;;;;7.53;95.70;98421.30;105667;1321;138986;-81
2021/12/31 05:05:36;;;;;;;12.10;9.10;;;;;;;7.55;95.54;98419.63;105789;1321;23229;-80
2021/12/31 05:08:03;;;;;;;11.50;8.60;;;;;;;7.56;95.63;98422.73;105481;1328;138107;-80
2021/12/31 05:10:31;;;;;;;11.60;8.90;;;;;;;7.56;95.43;98425.73;105748;1325;22956;-80
2021/12/31 05:13:01;;;;;;;11.00;9.00;;;;;;;7.57;95.43;98424.77;105602;1330;22531;-80
2021/12/31 05:15:32;;;;;;;11.30;9.20;;;;;;;7.56;95.64;98419.23;105582;1328;138351;-80
2021/12/31 05:17:59;;;;;;;11.90;8.30;;;;;;;7.57;95.67;98410.42;105733;1325;22625;-81
2021/12/31 05:20:25;;;;;;;11.10;8.00;;;;;;;7.60;95.66;98411.30;105598;1327;138453;-80
2021/12/31 05:22:52;;;;;;;10.30;7.60;;;;;;;7.62;95.72;98410.83;105735;1327;23153;-81
2021/12/31 05:25:21;;;;;;;9.00;7.40;;;;;;;7.64;95.68;98413.52;105680;1326;138765;-80
2021/12/31 05:27:47;;;;;;;10.50;7.70;;;;;;;7.66;96.04;98411.36;105901;1326;22457;-80
2021/12/31 05:30:13;;;;;;;8.80;7.30;;;;;;;7.67;96.01;98408.69;105764;1327;23078;-81
2021/12/31 05:32:40;;;;;;;10.40;7.20;;;;;;;7.67;95.61;98411.89;105826;1327;138244;-81
2021/12/31 05:35:06;;;;;;;8.30;6.90;;;;;;;7.68;95.81;98411.20;105713;1321;22354;-81
2021/12/31 05:37:33;;;;;;;9.00;6.90;;;;;;;7.70;95.75;98411.32;105669;1326;138681;-81
2021/12/31 05:39:59;;;;;;;8.80;6.90;;;;;;;7.72;95.60;98419.09;105742;1327;23296;-80
2021/12/31 05:42:25;;;;;;;9.60;6.90;;;;;;;7.72;95.90;98425.20;105689;1328;22426;-81
2021/12/31 05:44:51;;;;;;;8.00;6.80;;;;;;;7.72;95.76;98434.02;105683;1320;138382;-81
2021/12/31 05:47:18;;;;;;;7.70;6.60;;;;;;;7.73;95.69;98435.38;105889;1327;22354;-81
2021/12/31 05:49:45;;;;;;;8.90;6.20;;;;;;;7.73;95.48;98438.04;105911;1325;138309;-80
2021/12/31 05:52:12;;;;;;;8.00;6.10;;;;;;;7.74;95.44;98441.70;105675;1320;23295;-81
2021/12/31 05:54:38;;;;;;;8.20;6.10;;;;;;;7.75;95.75;98432.71;105669;1327;22588;-80
2021/12/31 05:57:04;;;;;;;10.60;7.50;;;;;;;7.75;96.05;98430.92;105537;1324;137771;-80
2021/12/31 05:59:30;;;;;;;8.00;6.60;;;;;;;7.78;95.99;98432.06;105633;1325;23006;-80
2021/12/31 06:01:56;;;;;;;8.20;7.10;;;;;;;7.81;95.91;98430.98;105593;1324;139048;-80
2021/12/31 06:04:23;;;;;;;7.90;7.10;;;;;;;7.84;96.05;98429.12;105723;1330;22415;-81
2021/12/31 06:06:49;;;;;;;8.70;6.90;;;;;;;7.86;96.01;98429.66;105809;1327;22485;-80
2021/12/31 06:09:16;;;;;;;11.90;7.00;;;;;;;7.87;96.17;98432.23;105576;1325;137922;-80
2021/12/31 06:11:42;;;;;;;9.30;7.20;;;;;;;7.89;96.27;98433.98;105732;1325;22294;-80
2021/12/31 06:14:10;;;;;;;9.30;6.90;;;;;;;7.91;96.11;98434.15;105634;1324;138255;-81
2021/12/31 06:16:41;;;;;;;9.00;7.00;;;;;;;7.94;96.38;98436.45;105759;1327;22729;-80
2021/12/31 06:19:12;;;;;;;9.40;7.30;;;;;;;7.98;96.25;98432.90;105706;1320;137961;-80
2021/12/31 06:21:40;;;;;;;10.20;7.40;;;;;;;7.99;96.10;98437.48;105577;1324;23376;-80
2021/12/31 06:24:07;;;;;;;10.00;8.10;;;;;;;8.00;96.21;98444.76;105908;1320;22406;-80
2021/12/31 06:26:34;;;;;;;10.90;8.20;;;;;;;8.02;96.53;98455.83;105660;1320;138367;-80
2021/12/31 06:29:00;;;;;;;10.20;8.00;;;;;;;8.05;96.25;98453.41;105726;1324;22433;-80
2021/12/31 06:31:27;;;;;;;10.80;8.40;;;;;;;8.08;96.09;98455.88;105605;1325;137872;-80
2021/12/31 06:33:54;;;;;;;11.20;8.40;;;;;;;8.09;96.10;98453.45;105683;1323;22295;-80
2021/12/31 06:36:34;;;;;;;10.40;8.60;;;;;;;8.09;96.03;98461.01;105810;1321;22519;-80
2021/12/31 06:39:03;;;;;;;10.30;7.80;;;;;;;8.09;96.03;98460.20;105837;1321;138424;-80
2021/12/31 06:41:29;;;;;;;10.40;8.50;;;;;;;8.10;96.00;98466.03;105946;1326;22516;-80
2021/12/31 06:43:56;;;;;;;11.30;9.10;;;;;;;8.12;95.98;98463.04;105800;1327;138520;-81
2021/12/31 06:46:22;;;;;;;10.70;8.40;;;;;;;8.13;95.97;98460.90;105832;1327;22277;-80
2021/12/31 06:48:48;;;;;;;9.40;8.00;;;;;;;8.14;95.73;98454.31;105603;1323;22728;-80
2021/12/31 06:51:14;;;;;;;10.90;8.70;;;;;;;8.14;95.95;98450.84;105472;1324;137891;-80
2021/12/31 06:53:41;;;;;;;10.60;8.10;;;;;;;8.14;95.92;98455.64;105722;1329;22661;-80
2021/12/31 06:56:07;;;;;;;11.40;7.30;;;;;;;8.16;96.13;98458.56;105667;1325;138397;-80
2021/12/31 06:58:34;;;;;;;9.50;6.50;;;;;;;8.19;96.14;98461.32;105943;1321;22597;-80
2021/12/31 07:01:00;;;;;;;10.30;6.60;;;;;;;8.21;96.23;98459.22;105959;1320;22722;-80
2021/12/31 07:03:26;;;;;;;6.30;5.60;;;;;;;8.23;96.20;98462.68;105453;1321;140074;-80
2021/12/31 07:05:53;;;;;;;8.40;6.20;;;;;;;8.25;96.26;98466.05;105793;1325;22503;-80
2021/12/31 07:08:19;;;;;;;7.70;6.20;;;;;;;8.28;96.41;98463.86;105588;1324;138156;-80
2021/12/31 07:10:45;;;;;;;8.00;6.00;;;;;;;8.32;96.67;98460.27;105671;1324;22529;-80
2021/12/31 07:13:12;;;;;;;7.80;6.10;;;;;;;8.35;96.52;98462.95;105616;1327;137858;-80
2021/12/31 07:15:44;;;;;;;7.00;6.00;;;;;;;8.36;96.24;98465.14;105744;1329;23199;-80
2021/12/31 07:18:11;;;;;;;9.00;6.80;;;;;;;8.38;96.50;98469.38;105906;1325;22544;-80
2021/12/31 07:20:37;;;;;;;7.60;6.40;;;;;;;8.40;96.40;98467.47;105686;1326;138376;-81
2021/12/31 07:23:06;;;;;;;9.70;5.80;;;;;;;8.43;96.44;98467.20;105922;1322;22358;-80
2021/12/31 07:25:34;;;;;;;6.30;5.30;;;;;;;8.46;96.53;98471.24;105839;1327;138520;-80
2021/12/31 07:28:01;;;;;;;7.80;5.00;;;;;;;8.48;96.31;98474.14;105775;1327;22561;-80
2021/12/31 07:30:28;;;;;;;5.50;4.50;;;;;;;8.52;96.39;98478.96;105749;1325;23034;-80
2021/12/31 07:32:54;;;;;;;5.20;4.60;;;;;;;8.54;96.83;98477.23;105569;1328;138639;-80
2021/12/31 07:35:20;;;;;;;6.70;5.20;;;;;;;8.56;96.58;98476.98;105825;1325;22328;-81
2021/12/31 07:37:47;;;;;;;9.20;5.10;;;;;;;8.57;96.50;98483.88;105695;1326;138401;-80
2021/12/31 07:40:13;;;;;;;7.10;5.10;;;;;;;8.59;96.26;98482.05;105791;1324;22544;-80
2021/12/31 07:42:40;;;;;;;6.60;4.80;;;;;;;8.60;96.43;98487.84;105973;1323;23044;-80
2021/12/31 07:45:07;;;;;;;5.40;4.30;;;;;;;8.61;96.27;98493.41;105790;1325;138371;-80
2021/12/31 07:47:33;;;;;;;5.70;4.60;;;;;;;8.63;96.49;98488.05;105722;1328;22504;-80
2021/12/31 07:49:59;;;;;;;6.80;5.10;;;;;;;8.64;96.14;98495.08;105691;1324;137729;-80
2021/12/31 07:52:25;;;;;;;6.20;5.10;;;;;;;8.67;96.51;98498.55;105727;1320;22709;-81
2021/12/31 07:54:52;;;;;;;5.10;4.10;;;;;;;8.68;96.17;98500.54;105711;1323;22292;-80
2021/12/31 07:57:18;;;;;;;5.50;4.60;;;;;;;8.69;96.16;98500.18;105504;1327;138364;-80
2021/12/31 07:59:44;;;;;;;5.30;3.90;;;;;;;8.70;96.13;98497.45;105923;1321;22573;-81
2021/12/31 08:02:11;;;;;;;5.10;3.40;;;;;;;8.72;96.19;98494.88;105800;1328;139091;-81
2021/12/31 08:04:37;;;;;;;5.40;3.90;;;;;;;8.73;96.34;98495.15;105896;1321;22919;-80
2021/12/31 08:07:03;;;;;;;5.00;4.00;;;;;;;8.76;96.24;98496.78;105860;1327;23247;-81
2021/12/31 08:09:30;;;;;;;5.70;4.30;;;;;;;8.79;96.47;98492.62;105595;1324;138082;-81
2021/12/31 08:11:56;;;;;;;7.00;4.40;;;;;;;8.80;96.42;98496.55;105747;1329;22434;-81
2021/12/31 08:14:22;;;;;;;5.60;4.00;;;;;;;8.81;96.36;98498.09;105455;1327;265188;-81
2021/12/31 08:17:47;;;;;;;5.10;4.00;;;;;;;8.85;96.33;98502.33;100004;1350;559299;-81
2021/12/31 08:20:13;;;;;;;5.10;4.00;;;;;;;8.83;96.27;98504.14;101379;1328;136547;-80
2021/12/31 08:22:39;;;;;;;5.70;3.90;;;;;;;8.83;96.26;98509.30;101186;1332;24217;-80
2021/12/31 08:25:06;;;;;;;5.60;4.40;;;;;;;8.82;96.42;98510.64;101271;1334;22724;-80
2021/12/31 08:27:33;;;;;;;8.00;5.30;;;;;;;8.81;96.38;98511.91;101339;1334;137288;-81
2021/12/31 08:29:59;;;;;;;6.90;4.90;;;;;;;8.80;96.32;98512.64;101211;1330;95213;-81
2021/12/31 08:32:26;;;;;;;6.70;5.00;;;;;;;8.80;96.48;98518.02;101215;1330;136960;-81
2021/12/31 08:34:52;;;;;;;8.20;5.40;;;;;;;8.80;96.48;98521.59;101550;1330;22652;-80
2021/12/31 08:37:18;;;;;;;9.00;6.40;;;;;;;8.78;96.47;98516.89;101512;1322;136590;-80
2021/12/31 08:39:45;;;;;;;8.40;5.60;;;;;;;8.76;96.52;98527.41;101523;1331;22681;-80
2021/12/31 08:42:11;;;;;;;7.60;5.90;;;;;;;8.74;96.45;98523.67;101634;1331;22638;-80
2021/12/31 08:44:37;;;;;;;7.70;5.40;;;;;;;8.73;96.62;98523.77;101479;1332;138286;-80
2021/12/31 08:47:04;;;;;;;8.00;5.80;;;;;;;8.72;96.72;98522.27;101559;1331;22597;-82
2021/12/31 08:49:30;;;;;;;6.60;5.20;;;;;;;8.73;96.68;98532.08;101129;1331;137582;-82
2021/12/31 08:51:57;;;;;;;7.40;5.70;;;;;;;8.74;96.68;98525.04;101558;1331;24484;-82
2021/12/31 08:54:23;;;;;;;6.60;5.50;;;;;;;8.75;96.83;98526.99;101300;1329;23481;-82
2021/12/31 08:56:49;;;;;;;8.60;5.80;;;;;;;8.74;97.06;98535.52;101621;1331;136718;-82
2021/12/31 08:59:19;;;;;;;11.70;6.80;;;;;;;8.74;96.80;98538.08;101763;1331;22628;-82
2021/12/31 09:01:46;;;;;;;9.30;6.20;;;;;;;8.74;96.84;98534.10;101416;1331;138095;-82
2021/12/31 09:04:12;;;;;;;9.00;5.80;;;;;;;8.75;96.93;98533.42;101536;1331;25203;-82
2021/12/31 09:06:38;;;;;;;9.10;6.00;;;;;;;8.76;96.87;98539.68;101184;1331;24208;-82
2021/12/31 09:09:06;;;;;;;8.30;5.70;;;;;;;8.76;96.55;98535.92;103364;1329;137351;-80
2021/12/31 09:11:32;;;;;;;8.40;6.30;;;;;;;8.75;96.72;98539.82;103428;1328;23057;-81
2021/12/31 09:13:58;;;;;;;9.90;7.60;;;;;;;8.75;96.70;98534.77;101548;1327;136662;-81
2021/12/31 09:16:25;;;;;;;10.30;7.00;;;;;;;8.76;96.91;98543.48;101333;1326;24405;-81
2021/12/31 09:18:51;;;;;;;8.70;6.30;;;;;;;8.78;96.81;98539.61;101440;1323;23294;-80
2021/12/31 09:21:18;;;;;;;8.00;6.10;;;;;;;8.79;96.72;98537.85;101362;1328;137260;-81
2021/12/31 09:23:45;;;;;;;10.00;6.20;;;;;;;8.80;96.80;98536.54;101593;1328;25319;-80
2021/12/31 09:26:11;;;;;;;9.30;6.30;;;;;;;8.80;96.85;98538.83;101631;1323;137417;-84
2021/12/31 09:28:37;;;;;;;8.40;5.90;;;;;;;8.79;96.80;98542.77;101688;1328;22582;-81
2021/12/31 09:31:07;;;;;;;8.10;6.40;;;;;;;8.80;96.82;98546.30;101537;1328;22628;-81
2021/12/31 09:33:34;;;;;;;11.90;7.00;;;;;;;8.81;96.90;98551.16;101440;1330;137316;-80
2021/12/31 09:36:00;;;;;;;12.30;7.80;;;;;;;8.83;97.00;98557.67;101490;1328;23925;-80
2021/12/31 09:38:27;;;;;;;13.50;9.70;;;;;;;8.83;96.78;98554.58;101477;1328;136842;-81
2021/12/31 09:40:54;;;;;;;13.10;9.00;;;;;;;8.82;96.79;98558.85;101306;1328;24236;-82
2021/12/31 09:43:20;;;;;;;13.10;9.80;;;;;;;8.81;96.85;98559.11;101187;1328;137795;-82
2021/12/31 09:45:50;;;;;;;12.40;9.70;;;;;;;8.81;96.92;98554.39;101457;1328;22602;-82
2021/12/31 09:48:20;;;;;;;13.20;9.40;;;;;;;8.82;96.83;98559.71;101141;1330;22737;-82
2021/12/31 09:50:49;;;;;;;10.80;8.20;;;;;;;8.82;96.64;98557.71;101522;1328;138132;-82
2021/12/31 09:53:17;;;;;;;13.40;8.80;;;;;;;8.82;96.75;98555.55;101735;1327;22660;-82
2021/12/31 09:55:51;;;;;;;20.20;12.50;;;;;;;8.82;96.92;98556.50;101373;1328;137209;-82
2021/12/31 09:58:19;;;;;;;16.30;10.20;;;;;;;8.81;96.76;98558.23;101513;1328;22643;-81
2021/12/31 10:00:48;;;;;;;14.10;9.40;;;;;;;8.81;96.81;98544.86;101506;1328;22630;-81
2021/12/31 10:03:28;;;;;;;11.90;8.70;;;;;;;8.82;96.73;98546.20;101536;1326;137817;-82
2021/12/31 10:06:00;;;;;;;14.40;8.90;;;;;;;8.83;96.81;98546.00;101539;1328;22586;-84
2021/12/31 10:08:29;;;;;;;18.40;12.40;;;;;;;8.85;96.86;98541.44;101615;1327;138083;-82
2021/12/31 10:14:58;;;;;;;22.60;13.10;;;;;;;8.86;96.74;98536.63;102606;1327;137689;-80
2021/12/31 10:17:36;;;;;;;19.20;11.30;;;;;;;8.89;96.81;98532.59;102338;1323;23260;-80
2021/12/31 10:20:03;;;;;;;15.00;11.10;;;;;;;8.92;96.56;98532.89;102006;1328;137716;-80
2021/12/31 10:22:29;;;;;;;15.70;10.40;;;;;;;8.96;96.63;98536.47;101498;1328;22582;-84
2021/12/31 10:24:56;;;;;;;19.60;13.90;;;;;;;8.99;96.52;98529.27;101731;1328;22770;-82
2021/12/31 10:27:23;;;;;;;20.90;14.30;;;;;;;9.03;96.62;98526.95;101363;1329;137162;-82
2021/12/31 10:29:56;;;;;;;17.20;12.50;;;;;;;9.07;96.52;98524.14;101491;1327;25235;-82
2021/12/31 10:32:40;;;;;;;20.00;13.00;;;;;;;9.11;96.47;98519.67;101513;1327;137756;-82
2021/12/31 10:35:12;;;;;;;17.80;12.10;;;;;;;9.16;96.38;98525.60;101777;1328;24197;-82
2021/12/31 10:37:47;;;;;;;16.50;11.40;;;;;;;9.20;96.27;98524.88;101714;1328;138511;-83
2021/12/31 10:40:43;;;;;;;16.00;11.90;;;;;;;9.24;96.04;98520.13;101748;1329;22730;-80
2021/12/31 10:43:25;;;;;;;14.80;10.50;;;;;;;9.31;96.27;98520.52;101669;1328;24327;-81
2021/12/31 10:46:11;;;;;;;17.00;11.50;;;;;;;9.36;96.20;98513.08;101495;1331;137719;-81
2021/12/31 10:48:40;;;;;;;15.00;11.20;;;;;;;9.40;96.14;98503.63;101657;1329;25184;-81
2021/12/31 10:51:08;;;;;;;15.10;10.50;;;;;;;9.44;95.94;98500.05;101679;1328;137378;-81
2021/12/31 10:53:37;;;;;;;14.90;9.80;;;;;;;9.47;95.93;98499.54;101757;1325;25386;-81
2021/12/31 10:56:11;;;;;;;16.30;10.40;;;;;;;9.50;95.67;98501.73;101778;1328;22599;-79
2021/12/31 10:58:39;;;;;;;15.80;10.80;;;;;;;9.53;95.51;98504.78;101479;1329;145770;-81
2021/12/31 11:01:10;;;;;;;13.90;9.80;;;;;;;9.56;95.26;98503.66;101556;1328;22606;-80
2021/12/31 11:03:39;;;;;;;14.90;9.30;;;;;;;9.57;95.03;98496.93;101540;1328;138166;-81
2021/12/31 11:06:07;;;;;;;12.10;8.30;;;;;;;9.58;95.21;98495.06;101639;1322;23655;-82
2021/12/31 11:08:35;;;;;;;13.10;9.10;;;;;;;9.57;95.03;98493.78;101396;1327;25295;-82
2021/12/31 11:11:03;;;;;;;11.80;8.80;;;;;;;9.56;94.93;98492.23;101479;1328;137214;-82
2021/12/31 11:13:31;;;;;;;15.50;9.50;;;;;;;9.55;94.78;98487.52;102231;1328;22610;-82
2021/12/31 11:15:59;;;;;;;16.80;10.30;;;;;;;9.55;94.79;98485.73;101750;1329;137692;-81
2021/12/31 11:18:26;;;;;;;16.60;9.90;;;;;;;9.55;94.54;98485.80;101999;1329;24233;-82
2021/12/31 11:21:08;;;;;;;15.90;9.90;;;;;;;9.58;94.56;98488.30;101611;1329;137535;-81
2021/12/31 11:23:36;;;;;;;13.90;9.50;;;;;;;9.66;94.73;98483.70;101605;1329;24219;-82
2021/12/31 11:26:13;;;;;;;13.30;9.30;;;;;;;9.71;94.59;98487.77;101557;1328;25268;-81
2021/12/31 11:29:15;;;;;;;14.60;9.70;;;;;;;9.76;94.49;98481.17;101445;1327;138064;-82
2021/12/31 11:31:48;;;;;;;21.30;12.30;;;;;;;9.80;94.44;98476.00;102139;1327;25492;-82
2021/12/31 11:34:37;;;;;;;17.20;11.80;;;;;;;9.85;94.34;98480.41;101621;1327;138108;-82
2021/12/31 11:37:04;;;;;;;21.30;12.80;;;;;;;9.92;94.35;98478.98;101569;1328;25039;-82
2021/12/31 11:39:36;;;;;;;17.80;11.50;;;;;;;9.99;94.47;98472.00;101609;1328;137340;-81